MSC Lea — 9HA2639 — position and weather

sailwx.info

Track history (hours):
 
Tides and Currents Weather Stations Pressure Air Temp Water Temp Dewpoint Dewpoint Depression Visibility Wind Speed Wind Dir Waves Ship Positions

MSC Lea

Last reported at 2015-Sep-01 23:33 UTC. Time now 2015-Sep-02 00:21 UTC.
Position N 33°53' E 027°58'.

Length 217 m; draft 8.3 m.

Type: Ship (hazmat cat A). MMSI: 215101000.

Date/timePositionNaut miles runAvg speedWind from/ knotsBaromVisibWave heightAir tempDewpointWater temp
2015-Sep-01 23:33N 33°53' E 027°58'1312.8
2015-Sep-01 22:33N 33°49' E 028°13'1313.0
2015-Sep-01 21:33N 33°44' E 028°28'1313.2
2015-Sep-01 20:33N 33°40' E 028°42'1313.3
2015-Sep-01 19:33N 33°35' E 028°58'1313.1
2015-Sep-01 18:32N 33°31' E 029°13'1313.0
2015-Sep-01 17:33N 33°26' E 029°27'1313.2
2015-Sep-01 16:33N 33°22' E 029°42'1413.2
2015-Sep-01 15:29N 33°17' E 029°58'1313.3
2015-Sep-01 14:32N 33°13' E 030°12'1313.3
2015-Sep-01 13:33N 33°09' E 030°27'1312.9
2015-Sep-01 12:32N 33°05' E 030°42'1312.9
2015-Sep-01 11:32N 33°01' E 030°56'1313.0
2015-Sep-01 10:33N 32°56' E 031°10'1313.1
2015-Sep-01 09:33N 32°52' E 031°25'1313.2
2015-Sep-01 08:33N 32°47' E 031°40'2613.2
2015-Sep-01 06:33N 32°38' E 032°09'1313.2
2015-Sep-01 05:33N 32°34' E 032°24'4213.2
2015-Sep-01 02:25N 32°21' E 033°11'3013.4
2015-Sep-01 00:13N 32°10' E 033°43'913.6
2015-Aug-31 23:33N 32°07' E 033°53'1313.5
2015-Aug-31 22:33N 32°01' E 034°08'1413.4
2015-Aug-31 21:32N 31°55' E 034°22'31 1.0
2015-Aug-30 14:16N 32°23' E 034°39'913.0
2015-Aug-30 13:33N 32°32' E 034°42'1312.7
2015-Aug-30 12:33N 32°44' E 034°46'13 1.1
2015-Aug-30 00:09N 32°49' E 035°01'0 0.0
2015-Aug-29 17:31N 32°49' E 035°01'0 0.0
2015-Aug-29 16:29N 32°49' E 035°01'0 0.0
2015-Aug-29 15:24N 32°49' E 035°01'25 3.7
2015-Aug-29 08:33N 32°57' E 034°32'1413.4
2015-Aug-29 07:29N 32°60' E 034°15'1513.7
2015-Aug-29 06:25N 32°55' E 033°59'1213.7
2015-Aug-29 05:33N 32°51' E 033°46'1413.5
2015-Aug-29 04:33N 32°46' E 033°31'2713.3
2015-Aug-29 02:32N 32°36' E 033°01'2612.8
2015-Aug-29 00:31N 32°30' E 032°31'1312.9
2015-Aug-28 23:31N 32°25' E 032°17'3812.9
2015-Aug-28 20:33N 32°13' E 031°34'1313.0
2015-Aug-28 19:33N 32°08' E 031°20'4113.3
2015-Aug-28 16:28N 31°55' E 030°34'1513.3
2015-Aug-28 15:20N 31°47' E 030°19'1113.7
2015-Aug-28 14:33N 31°40' E 030°09'1413.7
2015-Aug-28 13:33N 31°31' E 029°57'1312.7
2015-Aug-28 12:33N 31°20' E 029°49'12 1.0
2015-Aug-28 01:33N 31°09' E 029°48'4 3.1
2015-Aug-28 00:18N 31°13' E 029°48'10 8.6
2015-Aug-27 23:07N 31°22' E 029°43'0 0.4
2015-Aug-27 22:30N 31°22' E 029°43'1 0.9
2015-Aug-27 21:33N 31°23' E 029°42'1 0.7
2015-Aug-27 20:32N 31°23' E 029°42'2010.4
2015-Aug-27 18:34N 31°42' E 029°33'1413.8
2015-Aug-27 17:31N 31°55' E 029°27'18813.1
2015-Aug-27 03:10N 34°50' E 028°02'813.1
2015-Aug-27 02:32N 34°57' E 027°59'3213.3
2015-Aug-27 00:10N 35°26' E 027°42'2213.0
2015-Aug-26 22:27N 35°46' E 027°30'1212.9
2015-Aug-26 21:32N 35°56' E 027°22'3113.1
2015-Aug-26 19:13N 36°18' E 026°57'913.1
2015-Aug-26 18:33N 36°25' E 026°49'1513.0
2015-Aug-26 17:23N 36°36' E 026°37'1012.6
2015-Aug-26 16:33N 36°44' E 026°28'1312.8
2015-Aug-26 15:34N 36°53' E 026°17'1513.1
2015-Aug-26 14:25N 37°06' E 026°07'1112.8
2015-Aug-26 13:33N 37°16' E 026°01'1312.7
2015-Aug-26 12:34N 37°27' E 025°55'1212.2
2015-Aug-26 11:33N 37°39' E 025°52'218 9.9
2015-Aug-25 13:33N 40°35' E 028°39'8 0.8
2015-Aug-25 03:32N 40°29' E 028°46'1010.5
2015-Aug-25 02:33N 40°38' E 028°51'1414.5
2015-Aug-25 01:33N 40°44' E 029°08'1313.0
2015-Aug-25 00:32N 40°45' E 029°25'4 0.5
2015-Aug-24 16:33N 40°43' E 029°20'1111.5
2015-Aug-24 15:33N 40°48' E 029°06'1211.7
2015-Aug-24 14:33N 40°58' E 028°58'287 9.5
2015-Aug-23 08:26N 43°23' E 034°32'  
Track history (hours):
 
Tides and Currents Weather Stations Pressure Air Temp Water Temp Dewpoint Dewpoint Depression Visibility Wind Speed Wind Dir Waves Ship Positions

MSC Lea

Last reported at 2015-Sep-01 23:33 UTC. Time now 2015-Sep-02 00:21 UTC.
Position N 33°53' E 027°58'.

Length 217 m; draft 8.3 m.

Type: Ship (hazmat cat A). MMSI: 215101000.

Date/timePositionNaut miles runAvg speedWind from/ knotsBaromVisibWave heightAir tempDewpointWater temp
2015-Sep-01 23:33N 33°53' E 027°58'1312.8
2015-Sep-01 22:33N 33°49' E 028°13'1313.0
2015-Sep-01 21:33N 33°44' E 028°28'1313.2
2015-Sep-01 20:33N 33°40' E 028°42'1313.3
2015-Sep-01 19:33N 33°35' E 028°58'1313.1
2015-Sep-01 18:32N 33°31' E 029°13'1313.0
2015-Sep-01 17:33N 33°26' E 029°27'1313.2
2015-Sep-01 16:33N 33°22' E 029°42'1413.2
2015-Sep-01 15:29N 33°17' E 029°58'1313.3
2015-Sep-01 14:32N 33°13' E 030°12'1313.3
2015-Sep-01 13:33N 33°09' E 030°27'1312.9
2015-Sep-01 12:32N 33°05' E 030°42'1312.9
2015-Sep-01 11:32N 33°01' E 030°56'1313.0
2015-Sep-01 10:33N 32°56' E 031°10'1313.1
2015-Sep-01 09:33N 32°52' E 031°25'1313.2
2015-Sep-01 08:33N 32°47' E 031°40'2613.2
2015-Sep-01 06:33N 32°38' E 032°09'1313.2
2015-Sep-01 05:33N 32°34' E 032°24'4213.2
2015-Sep-01 02:25N 32°21' E 033°11'3013.4
2015-Sep-01 00:13N 32°10' E 033°43'913.6
2015-Aug-31 23:33N 32°07' E 033°53'1313.5
2015-Aug-31 22:33N 32°01' E 034°08'1413.4
2015-Aug-31 21:32N 31°55' E 034°22'31 1.0
2015-Aug-30 14:16N 32°23' E 034°39'913.0
2015-Aug-30 13:33N 32°32' E 034°42'1312.7
2015-Aug-30 12:33N 32°44' E 034°46'13 1.1
2015-Aug-30 00:09N 32°49' E 035°01'0 0.0
2015-Aug-29 17:31N 32°49' E 035°01'0 0.0
2015-Aug-29 16:29N 32°49' E 035°01'0 0.0
2015-Aug-29 15:24N 32°49' E 035°01'25 3.7
2015-Aug-29 08:33N 32°57' E 034°32'1413.4
2015-Aug-29 07:29N 32°60' E 034°15'1513.7
2015-Aug-29 06:25N 32°55' E 033°59'1213.7
2015-Aug-29 05:33N 32°51' E 033°46'1413.5
2015-Aug-29 04:33N 32°46' E 033°31'2713.3
2015-Aug-29 02:32N 32°36' E 033°01'2612.8
2015-Aug-29 00:31N 32°30' E 032°31'1312.9
2015-Aug-28 23:31N 32°25' E 032°17'3812.9
2015-Aug-28 20:33N 32°13' E 031°34'1313.0
2015-Aug-28 19:33N 32°08' E 031°20'4113.3
2015-Aug-28 16:28N 31°55' E 030°34'1513.3
2015-Aug-28 15:20N 31°47' E 030°19'1113.7
2015-Aug-28 14:33N 31°40' E 030°09'1413.7
2015-Aug-28 13:33N 31°31' E 029°57'1312.7
2015-Aug-28 12:33N 31°20' E 029°49'12 1.0
2015-Aug-28 01:33N 31°09' E 029°48'4 3.1
2015-Aug-28 00:18N 31°13' E 029°48'10 8.6
2015-Aug-27 23:07N 31°22' E 029°43'0 0.4
2015-Aug-27 22:30N 31°22' E 029°43'1 0.9
2015-Aug-27 21:33N 31°23' E 029°42'1 0.7
2015-Aug-27 20:32N 31°23' E 029°42'2010.4
2015-Aug-27 18:34N 31°42' E 029°33'1413.8
2015-Aug-27 17:31N 31°55' E 029°27'18813.1
2015-Aug-27 03:10N 34°50' E 028°02'813.1
2015-Aug-27 02:32N 34°57' E 027°59'3213.3
2015-Aug-27 00:10N 35°26' E 027°42'2213.0
2015-Aug-26 22:27N 35°46' E 027°30'1212.9
2015-Aug-26 21:32N 35°56' E 027°22'3113.1
2015-Aug-26 19:13N 36°18' E 026°57'913.1
2015-Aug-26 18:33N 36°25' E 026°49'1513.0
2015-Aug-26 17:23N 36°36' E 026°37'1012.6
2015-Aug-26 16:33N 36°44' E 026°28'1312.8
2015-Aug-26 15:34N 36°53' E 026°17'1513.1
2015-Aug-26 14:25N 37°06' E 026°07'1112.8
2015-Aug-26 13:33N 37°16' E 026°01'1312.7
2015-Aug-26 12:34N 37°27' E 025°55'1212.2
2015-Aug-26 11:33N 37°39' E 025°52'218 9.9
2015-Aug-25 13:33N 40°35' E 028°39'8 0.8
2015-Aug-25 03:32N 40°29' E 028°46'1010.5
2015-Aug-25 02:33N 40°38' E 028°51'1414.5
2015-Aug-25 01:33N 40°44' E 029°08'1313.0
2015-Aug-25 00:32N 40°45' E 029°25'4 0.5
2015-Aug-24 16:33N 40°43' E 029°20'1111.5
2015-Aug-24 15:33N 40°48' E 029°06'1211.7
2015-Aug-24 14:33N 40°58' E 028°58'287 9.5
2015-Aug-23 08:26N 43°23' E 034°32'  

Dump ship's entire track history